Time;durP1;ratioP1;P1;durP2;ratioP2;P2;SDS_P1;SDS_P2;PMS_P1;PMS_P2;Temp;Humidity;BMP_temperature;BMP_pressure;BME280_temperature;BME280_humidity;BME280_pressure;Samples;Min_cycle;Max_cycle;Signal;HPM_P1;HPM_P2
2023/04/24 00:00:56;;;;;;;5.70;4.40;;;;;;;12.12;43.93;95888.98;109112;1273;22539;-84
2023/04/24 00:03:30;;;;;;;6.40;3.60;;;;;;;12.07;44.12;95891.91;109248;1272;22620;-84
2023/04/24 00:06:02;;;;;;;6.40;4.70;;;;;;;11.95;44.45;95895.95;109206;1268;22564;-85
2023/04/24 00:08:33;;;;;;;6.90;4.80;;;;;;;11.82;44.82;95887.86;109178;1270;22508;-84
2023/04/24 00:11:04;;;;;;;6.40;5.00;;;;;;;11.73;45.01;95887.32;109117;1273;23830;-84
2023/04/24 00:13:35;;;;;;;6.80;4.40;;;;;;;11.67;45.16;95884.58;109102;1269;22650;-84
2023/04/24 00:16:06;;;;;;;6.80;4.80;;;;;;;11.68;45.13;95882.11;109070;1268;24243;-84
2023/04/24 00:18:37;;;;;;;6.40;4.90;;;;;;;11.69;45.20;95880.36;109083;1251;22518;-85
2023/04/24 00:21:08;;;;;;;5.70;4.20;;;;;;;11.67;45.27;95883.80;109089;1273;25227;-84
2023/04/24 00:23:41;;;;;;;6.50;4.20;;;;;;;11.61;45.47;95883.46;109117;1270;25234;-85
2023/04/24 00:26:12;;;;;;;6.80;4.50;;;;;;;11.54;45.50;95881.81;109087;1273;22636;-84
2023/04/24 00:28:42;;;;;;;7.60;5.20;;;;;;;11.53;45.60;95880.72;109159;1266;24161;-85
2023/04/24 00:31:13;;;;;;;6.70;4.40;;;;;;;11.50;45.71;95877.49;109105;1273;22507;-85
2023/04/24 00:33:44;;;;;;;6.90;4.50;;;;;;;11.49;45.71;95871.15;109093;1269;22513;-85
2023/04/24 00:36:15;;;;;;;7.50;4.90;;;;;;;11.50;45.68;95873.03;109056;1269;22514;-85
2023/04/24 00:38:46;;;;;;;7.10;4.60;;;;;;;11.51;45.67;95869.29;109113;1273;22551;-85
2023/04/24 00:41:17;;;;;;;6.40;5.00;;;;;;;11.52;45.76;95872.04;109084;1262;22582;-85
2023/04/24 00:43:48;;;;;;;5.50;4.40;;;;;;;11.51;45.63;95870.52;109118;1273;22607;-85
2023/04/24 00:46:20;;;;;;;8.40;4.90;;;;;;;11.52;45.74;95865.52;109105;1273;22655;-85
2023/04/24 00:48:51;;;;;;;6.80;4.90;;;;;;;11.57;45.59;95859.35;109198;1272;22568;-84
2023/04/24 00:51:24;;;;;;;7.20;5.20;;;;;;;11.68;45.36;95859.98;109133;1269;22646;-85
2023/04/24 00:53:55;;;;;;;8.20;4.70;;;;;;;11.76;45.17;95854.69;109121;1250;22522;-85
2023/04/24 00:56:26;;;;;;;7.20;5.30;;;;;;;11.81;45.18;95860.89;109101;1273;22531;-85
2023/04/24 00:58:58;;;;;;;6.80;5.20;;;;;;;11.81;45.08;95858.40;109134;1273;24423;-84
2023/04/24 01:01:30;;;;;;;6.00;4.40;;;;;;;11.79;45.09;95855.63;109097;1273;22566;-85
2023/04/24 01:04:01;;;;;;;7.60;4.60;;;;;;;11.71;45.22;95856.72;109149;1272;23878;-85
2023/04/24 01:06:33;;;;;;;6.90;4.00;;;;;;;11.64;45.27;95854.88;109143;1273;22581;-85
2023/04/24 01:09:04;;;;;;;6.30;4.40;;;;;;;11.60;45.40;95847.69;109170;1273;22555;-85
2023/04/24 01:11:35;;;;;;;5.80;4.20;;;;;;;11.59;45.54;95850.12;109124;1269;22618;-85
2023/04/24 01:14:07;;;;;;;9.20;4.80;;;;;;;11.62;45.44;95851.00;109072;1273;25403;-85
2023/04/24 01:16:38;;;;;;;6.30;4.20;;;;;;;11.66;45.35;95845.27;109091;1273;22515;-85
2023/04/24 01:19:10;;;;;;;6.60;4.40;;;;;;;11.67;45.33;95844.44;109097;1273;22545;-85
2023/04/24 01:21:43;;;;;;;5.90;3.90;;;;;;;11.72;45.12;95835.92;109131;1265;22508;-85
2023/04/24 01:24:14;;;;;;;7.40;4.70;;;;;;;11.80;45.00;95837.70;109085;1266;22507;-85
2023/04/24 01:26:45;;;;;;;6.20;4.50;;;;;;;11.79;45.02;95842.77;109141;1273;22511;-85
2023/04/24 01:29:16;;;;;;;5.70;4.30;;;;;;;11.75;45.01;95845.52;109115;1262;23806;-85
2023/04/24 01:31:47;;;;;;;8.10;4.40;;;;;;;11.68;45.11;95845.02;109196;1273;25281;-84
2023/04/24 01:34:18;;;;;;;9.30;5.00;;;;;;;11.61;45.22;95841.13;109091;1270;23730;-85
2023/04/24 01:36:52;;;;;;;6.00;4.60;;;;;;;11.56;45.35;95838.89;109047;1266;22880;-85
2023/04/24 01:39:25;;;;;;;6.10;4.40;;;;;;;11.52;45.42;95839.16;109106;1273;22511;-85
2023/04/24 01:41:56;;;;;;;5.40;4.30;;;;;;;11.47;45.53;95840.95;109098;1273;24189;-85
2023/04/24 01:44:28;;;;;;;5.70;4.60;;;;;;;11.33;45.87;95841.23;109145;1273;22518;-85
2023/04/24 01:46:59;;;;;;;6.10;4.80;;;;;;;11.18;46.17;95838.45;109093;1273;22889;-85
2023/04/24 01:49:32;;;;;;;8.40;4.60;;;;;;;11.02;46.52;95835.20;109128;1273;22539;-85
2023/04/24 01:52:03;;;;;;;6.70;4.80;;;;;;;10.89;46.87;95840.30;109136;1273;22573;-85
2023/04/24 01:54:34;;;;;;;5.90;4.20;;;;;;;10.78;47.13;95831.05;109165;1272;25279;-85
2023/04/24 01:57:05;;;;;;;6.90;4.50;;;;;;;10.64;47.40;95835.05;109065;1273;23144;-85
2023/04/24 01:59:36;;;;;;;6.80;4.50;;;;;;;10.49;47.46;95830.80;109169;1272;22688;-85
2023/04/24 02:02:07;;;;;;;8.30;4.60;;;;;;;10.45;47.64;95825.75;109122;1273;22512;-84
2023/04/24 02:04:38;;;;;;;6.90;4.50;;;;;;;10.44;47.71;95825.68;109097;1266;22518;-85
2023/04/24 02:07:09;;;;;;;4.80;3.90;;;;;;;10.46;47.68;95820.28;109089;1271;22507;-85
2023/04/24 02:09:39;;;;;;;9.30;5.00;;;;;;;10.52;47.68;95817.17;109124;1266;25440;-85
2023/04/24 02:12:11;;;;;;;8.40;4.70;;;;;;;10.58;47.63;95815.02;109102;1273;24181;-85
2023/04/24 02:14:42;;;;;;;8.10;5.40;;;;;;;10.60;47.59;95811.50;109134;1267;22525;-85
2023/04/24 02:17:15;;;;;;;7.00;5.00;;;;;;;10.55;47.62;95809.64;109112;1274;25424;-84
2023/04/24 02:19:46;;;;;;;5.60;4.30;;;;;;;10.50;47.72;95808.63;109142;1264;22521;-84
2023/04/24 02:22:17;;;;;;;7.10;4.60;;;;;;;10.47;47.84;95801.17;109127;1273;24058;-85
2023/04/24 02:24:48;;;;;;;6.70;4.60;;;;;;;10.42;47.93;95799.10;109124;1273;22530;-85
2023/04/24 02:27:19;;;;;;;6.90;4.90;;;;;;;10.38;48.12;95799.02;109114;1271;22465;-85
2023/04/24 02:29:49;;;;;;;8.20;4.40;;;;;;;10.36;48.23;95793.14;109118;1273;22578;-85
2023/04/24 02:32:20;;;;;;;6.00;4.90;;;;;;;10.33;48.22;95790.75;109124;1273;22532;-85
2023/04/24 02:34:51;;;;;;;5.70;4.70;;;;;;;10.27;48.26;95786.48;109132;1273;22947;-85
2023/04/24 02:37:22;;;;;;;6.20;4.30;;;;;;;10.25;48.49;95781.42;109114;1266;22519;-84
2023/04/24 02:39:53;;;;;;;7.30;4.50;;;;;;;10.21;48.69;95778.60;109101;1273;23124;-84
2023/04/24 02:42:24;;;;;;;7.80;4.60;;;;;;;10.12;48.89;95773.66;109116;1273;24057;-85
2023/04/24 02:44:55;;;;;;;7.10;4.80;;;;;;;10.03;49.02;95773.63;109132;1271;22741;-85
2023/04/24 02:47:25;;;;;;;5.60;4.40;;;;;;;9.96;49.36;95770.64;109104;1273;22547;-84
2023/04/24 02:49:56;;;;;;;7.70;4.30;;;;;;;9.92;49.31;95768.39;109092;1273;22522;-85
2023/04/24 02:52:27;;;;;;;5.90;5.10;;;;;;;9.93;49.62;95767.63;109112;1266;24191;-84
2023/04/24 02:54:58;;;;;;;6.20;4.80;;;;;;;9.89;49.68;95761.94;109117;1272;22511;-84
2023/04/24 02:57:30;;;;;;;6.50;4.10;;;;;;;9.88;49.99;95762.59;109107;1273;22593;-85
2023/04/24 03:00:01;;;;;;;6.70;4.50;;;;;;;9.79;50.20;95761.70;109164;1273;22562;-85
2023/04/24 03:02:32;;;;;;;5.40;4.80;;;;;;;9.80;50.34;95761.08;109125;1273;23905;-85
2023/04/24 03:05:04;;;;;;;6.90;4.70;;;;;;;9.96;50.18;95761.74;109124;1273;22532;-84
2023/04/24 03:07:35;;;;;;;6.60;5.40;;;;;;;10.09;49.93;95765.50;109147;1273;24240;-85
2023/04/24 03:10:07;;;;;;;6.10;4.20;;;;;;;10.14;49.91;95763.00;109147;1273;22507;-84
2023/04/24 03:12:40;;;;;;;5.50;4.30;;;;;;;10.16;49.70;95766.08;109150;1273;22539;-84
2023/04/24 03:15:12;;;;;;;7.90;5.00;;;;;;;10.10;49.96;95765.91;109113;1270;25415;-84
2023/04/24 03:17:43;;;;;;;5.80;4.70;;;;;;;9.75;50.33;95765.89;109116;1271;22739;-84
2023/04/24 03:20:15;;;;;;;6.60;4.60;;;;;;;9.56;50.71;95764.18;109169;1266;22508;-84
2023/04/24 03:22:46;;;;;;;7.40;4.90;;;;;;;9.46;51.15;95763.34;109126;1271;22514;-84
2023/04/24 03:25:17;;;;;;;6.30;4.50;;;;;;;9.39;51.19;95764.20;109133;1270;23729;-84
2023/04/24 03:27:48;;;;;;;6.80;4.80;;;;;;;9.31;51.27;95758.90;109083;1266;25132;-84
2023/04/24 03:30:19;;;;;;;6.10;4.50;;;;;;;9.21;51.73;95762.64;109106;1273;22544;-85
2023/04/24 03:32:50;;;;;;;5.90;4.40;;;;;;;9.13;51.83;95759.70;109110;1269;22512;-85
2023/04/24 03:35:21;;;;;;;5.60;4.10;;;;;;;9.00;52.30;95761.56;109119;1262;22512;-85
2023/04/24 03:37:52;;;;;;;5.20;4.10;;;;;;;9.03;52.58;95761.05;109109;1273;22513;-85
2023/04/24 03:40:25;;;;;;;8.10;4.70;;;;;;;9.08;52.71;95752.56;109064;1273;22517;-84
2023/04/24 03:42:56;;;;;;;5.50;4.50;;;;;;;9.05;52.80;95752.88;109132;1270;23800;-84
2023/04/24 03:45:27;;;;;;;7.20;4.70;;;;;;;9.10;52.80;95750.45;109136;1271;22534;-85
2023/04/24 03:47:58;;;;;;;4.70;4.10;;;;;;;9.19;52.49;95750.16;109112;1262;22830;-85
2023/04/24 03:50:29;;;;;;;6.60;4.80;;;;;;;9.30;52.43;95750.77;109109;1273;22537;-84
2023/04/24 03:53:00;;;;;;;5.20;4.00;;;;;;;9.30;52.39;95749.04;109128;1272;25911;-84
2023/04/24 03:55:31;;;;;;;5.70;4.40;;;;;;;9.31;52.63;95751.87;109140;1273;23019;-85
2023/04/24 03:58:02;;;;;;;6.10;4.50;;;;;;;9.34;52.57;95750.27;109081;1271;22536;-85
2023/04/24 04:00:34;;;;;;;5.50;4.10;;;;;;;9.40;52.51;95755.66;109126;1273;23686;-85
2023/04/24 04:03:05;;;;;;;6.10;4.30;;;;;;;9.45;52.31;95753.52;109200;1273;22508;-85
2023/04/24 04:05:36;;;;;;;6.60;4.20;;;;;;;9.51;52.15;95754.46;109125;1273;22519;-84
2023/04/24 04:08:07;;;;;;;6.10;4.40;;;;;;;9.65;52.07;95756.39;109132;1271;22566;-85
2023/04/24 04:10:40;;;;;;;4.60;3.70;;;;;;;9.75;52.04;95753.71;109158;1273;24228;-85
2023/04/24 04:13:11;;;;;;;4.80;4.20;;;;;;;9.72;52.42;95751.30;109133;1270;22466;-84
2023/04/24 04:15:42;;;;;;;5.90;4.30;;;;;;;9.68;52.99;95745.11;109120;1273;22526;-85
2023/04/24 04:18:13;;;;;;;6.40;5.50;;;;;;;9.71;53.06;95754.86;109113;1268;24929;-84
2023/04/24 04:20:44;;;;;;;5.20;4.30;;;;;;;9.74;53.61;95747.39;109125;1271;22613;-85
2023/04/24 04:23:15;;;;;;;4.60;4.10;;;;;;;9.76;53.74;95751.76;109124;1252;22561;-85
2023/04/24 04:25:46;;;;;;;7.00;4.30;;;;;;;9.91;53.86;95746.54;109116;1273;22560;-85
2023/04/24 04:28:20;;;;;;;5.50;4.20;;;;;;;10.29;54.04;95749.91;109081;1273;22520;-84
2023/04/24 04:30:53;;;;;;;6.90;5.20;;;;;;;11.66;53.66;95747.65;109093;1273;22556;-85
2023/04/24 04:33:25;;;;;;;7.30;4.90;;;;;;;13.26;52.40;95745.86;109141;1273;23800;-85
2023/04/24 04:35:56;;;;;;;6.80;4.60;;;;;;;14.38;49.47;95742.30;109151;1273;22658;-85
2023/04/24 04:38:29;;;;;;;6.90;4.50;;;;;;;14.84;48.01;95744.36;109114;1271;24430;-85
2023/04/24 04:41:00;;;;;;;5.20;4.50;;;;;;;15.69;46.84;95740.65;109091;1268;22543;-85
2023/04/24 04:43:33;;;;;;;6.20;4.20;;;;;;;16.75;45.26;95734.33;109093;1273;22508;-85
2023/04/24 04:46:05;;;;;;;4.90;4.00;;;;;;;17.83;44.23;95727.98;109104;1270;22733;-85
2023/04/24 04:48:37;;;;;;;5.10;3.80;;;;;;;18.55;41.98;95726.67;109106;1259;22504;-85
2023/04/24 04:51:08;;;;;;;7.80;4.30;;;;;;;19.50;42.07;95726.13;109108;1271;22514;-85
2023/04/24 04:53:39;;;;;;;5.70;3.90;;;;;;;20.93;41.72;95723.27;109170;1273;23404;-85
2023/04/24 04:56:10;;;;;;;7.90;3.90;;;;;;;22.43;40.37;95721.29;109119;1273;25959;-85
2023/04/24 04:58:41;;;;;;;7.00;3.90;;;;;;;23.60;38.90;95728.26;109098;1272;22538;-85
2023/04/24 05:01:12;;;;;;;5.70;3.90;;;;;;;23.99;35.75;95729.73;109078;1273;22563;-85
2023/04/24 05:03:43;;;;;;;4.40;3.90;;;;;;;24.57;35.07;95728.23;109099;1274;22624;-85
2023/04/24 05:06:15;;;;;;;7.60;3.90;;;;;;;25.02;33.31;95725.73;109104;1273;22573;-85
2023/04/24 05:08:46;;;;;;;5.00;3.90;;;;;;;25.43;32.31;95719.76;109147;1273;22686;-85
2023/04/24 05:11:17;;;;;;;6.30;4.30;;;;;;;25.25;31.81;95718.14;109101;1265;22821;-85
2023/04/24 05:13:48;;;;;;;5.10;4.00;;;;;;;25.63;31.38;95719.57;109163;1272;22523;-85
2023/04/24 05:16:19;;;;;;;4.70;4.10;;;;;;;26.00;31.20;95714.61;109117;1273;23784;-86
2023/04/24 05:18:49;;;;;;;4.00;3.60;;;;;;;27.07;31.29;95712.57;109121;1267;24181;-85
2023/04/24 05:21:21;;;;;;;5.50;3.70;;;;;;;28.39;30.12;95716.17;109118;1269;25304;-86
2023/04/24 05:23:52;;;;;;;7.10;3.90;;;;;;;28.94;28.41;95712.95;109126;1273;22687;-86
2023/04/24 05:26:23;;;;;;;4.10;3.60;;;;;;;29.11;27.69;95711.36;109113;1267;27964;-85
2023/04/24 05:28:54;;;;;;;3.90;3.30;;;;;;;29.34;26.91;95709.02;109151;1273;23222;-86
2023/04/24 05:31:25;;;;;;;4.00;3.30;;;;;;;29.43;26.36;95708.06;108998;1271;173580;-86
2023/04/24 05:33:56;;;;;;;3.50;3.10;;;;;;;29.78;26.02;95706.61;109106;1273;22527;-87
2023/04/24 05:36:30;;;;;;;4.10;3.00;;;;;;;29.89;24.95;95709.41;109109;1273;23114;-86
2023/04/24 05:39:01;;;;;;;5.40;3.50;;;;;;;29.13;23.26;95712.80;109086;1267;25735;-87
2023/04/24 05:41:32;;;;;;;4.80;3.10;;;;;;;27.92;23.89;95714.66;109098;1272;22615;-86
2023/04/24 05:44:03;;;;;;;3.10;2.80;;;;;;;27.36;23.37;95710.91;109107;1272;22656;-86
2023/04/24 05:46:34;;;;;;;3.90;3.00;;;;;;;26.39;24.27;95709.10;109105;1267;24800;-86
2023/04/24 05:49:06;;;;;;;4.40;3.10;;;;;;;26.97;23.86;95706.35;109124;1250;22513;-87
2023/04/24 05:51:36;;;;;;;3.20;2.90;;;;;;;26.55;24.12;95703.13;109130;1269;22574;-87
2023/04/24 05:54:07;;;;;;;5.20;2.60;;;;;;;26.97;23.95;95701.60;109166;1273;22516;-87
2023/04/24 05:56:38;;;;;;;4.10;2.90;;;;;;;27.74;24.74;95697.96;109202;1272;22530;-87
2023/04/24 05:59:09;;;;;;;3.90;3.20;;;;;;;28.37;23.24;95700.72;109183;1273;24961;-87
2023/04/24 06:01:41;;;;;;;4.30;3.50;;;;;;;28.02;23.72;95703.69;109129;1273;22518;-86
2023/04/24 06:04:13;;;;;;;3.20;2.70;;;;;;;28.95;24.21;95702.77;109132;1273;24983;-87
2023/04/24 06:06:44;;;;;;;6.70;2.90;;;;;;;29.82;23.36;95695.14;109208;1270;29416;-86
2023/04/24 06:09:16;;;;;;;3.80;3.10;;;;;;;30.84;23.68;95694.77;109144;1250;25452;-87
2023/04/24 06:11:47;;;;;;;4.20;2.60;;;;;;;31.92;22.74;95697.38;109184;1272;22605;-87
2023/04/24 06:14:18;;;;;;;3.10;2.80;;;;;;;32.31;21.03;95697.15;109105;1273;22585;-87
2023/04/24 06:16:49;;;;;;;4.20;3.00;;;;;;;32.25;21.01;95696.73;109124;1272;35240;-88
2023/04/24 06:19:21;;;;;;;3.30;2.60;;;;;;;31.51;20.13;95692.96;109128;1265;22519;-87
2023/04/24 06:21:52;;;;;;;4.30;2.60;;;;;;;31.23;21.07;95700.13;109128;1273;22531;-87
2023/04/24 06:24:23;;;;;;;2.70;2.40;;;;;;;31.71;20.63;95694.67;109146;1273;22531;-86
2023/04/24 06:26:54;;;;;;;3.30;3.00;;;;;;;31.76;20.52;95690.66;109154;1273;26928;-87
2023/04/24 06:29:25;;;;;;;4.60;2.80;;;;;;;31.49;20.37;95690.92;109226;1273;22607;-87
2023/04/24 06:31:56;;;;;;;3.30;2.70;;;;;;;32.37;20.58;95691.21;109150;1272;22515;-87
2023/04/24 06:34:30;;;;;;;3.70;3.00;;;;;;;33.09;19.82;95689.06;109198;1266;22533;-87
2023/04/24 06:37:01;;;;;;;4.30;2.80;;;;;;;32.24;19.23;95690.32;109100;1273;28227;-87
2023/04/24 06:39:32;;;;;;;4.10;2.70;;;;;;;31.53;20.07;95685.40;109121;1273;22554;-86
2023/04/24 06:42:03;;;;;;;2.90;2.60;;;;;;;31.55;19.84;95682.05;109111;1273;24214;-86
2023/04/24 06:44:40;;;;;;;2.90;2.70;;;;;;;31.46;19.96;95678.65;109131;1273;22745;-87
2023/04/24 06:47:13;;;;;;;4.40;2.70;;;;;;;30.93;19.66;95677.90;109077;1273;26551;-87
2023/04/24 06:49:44;;;;;;;2.70;2.50;;;;;;;31.02;19.88;95679.35;109125;1273;24002;-87
2023/04/24 06:52:15;;;;;;;3.10;2.20;;;;;;;31.44;19.72;95675.10;109117;1272;22527;-87
2023/04/24 06:54:46;;;;;;;2.50;2.30;;;;;;;30.93;19.64;95675.07;109197;1272;25693;-87
2023/04/24 06:57:18;;;;;;;2.90;2.60;;;;;;;31.02;19.87;95673.42;109100;1273;25655;-87
2023/04/24 06:59:49;;;;;;;2.60;2.40;;;;;;;31.15;19.43;95671.56;109193;1272;22571;-86
2023/04/24 07:02:20;;;;;;;3.30;2.50;;;;;;;31.15;19.03;95671.89;109180;1273;24318;-86
2023/04/24 07:04:52;;;;;;;3.40;2.50;;;;;;;31.24;19.34;95670.38;109144;1273;22521;-87
2023/04/24 07:07:23;;;;;;;3.00;2.50;;;;;;;32.12;19.04;95669.55;109165;1273;22519;-86
2023/04/24 07:09:56;;;;;;;3.30;2.40;;;;;;;32.49;18.53;95671.14;109142;1262;22711;-87
2023/04/24 07:12:27;;;;;;;2.50;2.20;;;;;;;32.46;17.56;95662.38;109080;1273;22550;-86
2023/04/24 07:15:03;;;;;;;2.70;2.40;;;;;;;32.24;17.93;95665.63;109098;1272;22748;-84
2023/04/24 07:17:35;;;;;;;2.50;2.20;;;;;;;32.59;18.21;95660.61;109096;1272;33963;-84
2023/04/24 07:20:10;;;;;;;2.70;2.50;;;;;;;33.14;17.17;95658.52;109093;1273;22526;-84
2023/04/24 07:22:41;;;;;;;2.30;2.10;;;;;;;32.73;17.69;95654.72;109122;1273;22668;-84
2023/04/24 07:25:12;;;;;;;2.70;2.30;;;;;;;33.61;17.67;95651.57;109092;1267;22599;-84
2023/04/24 07:27:43;;;;;;;2.40;2.10;;;;;;;33.64;16.99;95656.19;109087;1273;24895;-84
2023/04/24 07:30:15;;;;;;;4.30;2.20;;;;;;;33.95;17.13;95651.88;109120;1272;22688;-84
2023/04/24 07:32:46;;;;;;;3.00;2.10;;;;;;;34.11;16.45;95646.13;109109;1269;22516;-84
2023/04/24 07:35:19;;;;;;;3.40;2.40;;;;;;;33.05;16.48;95647.08;109078;1273;22527;-84
2023/04/24 07:37:50;;;;;;;4.30;2.40;;;;;;;33.28;17.59;95648.09;109108;1262;22523;-84
2023/04/24 07:40:22;;;;;;;3.60;2.30;;;;;;;34.27;17.06;95646.34;109106;1273;22525;-88
2023/04/24 07:42:53;;;;;;;2.50;2.10;;;;;;;35.60;17.08;95642.61;109098;1273;24180;-85
2023/04/24 07:45:25;;;;;;;2.90;1.90;;;;;;;37.18;16.39;95644.36;109058;1273;22512;-85
2023/04/24 07:47:57;;;;;;;4.40;2.20;;;;;;;38.20;16.01;95638.92;109055;1273;23355;-83
2023/04/24 07:50:28;;;;;;;3.80;2.10;;;;;;;39.48;15.79;95633.84;109133;1272;22574;-86
2023/04/24 07:52:59;;;;;;;2.40;2.20;;;;;;;40.32;15.24;95633.10;109136;1273;23309;-85
2023/04/24 07:55:31;;;;;;;3.00;2.30;;;;;;;40.80;14.25;95632.42;109094;1273;22539;-86
2023/04/24 07:58:02;;;;;;;2.70;2.50;;;;;;;41.65;14.97;95632.86;109100;1269;24151;-85
2023/04/24 08:00:32;;;;;;;4.60;2.70;;;;;;;42.11;13.92;95628.14;109133;1273;23736;-85
2023/04/24 08:03:05;;;;;;;3.60;2.20;;;;;;;41.05;13.26;95626.21;109114;1270;22455;-85
2023/04/24 08:05:36;;;;;;;4.40;2.70;;;;;;;39.33;13.46;95621.29;109106;1273;25403;-85
2023/04/24 08:08:07;;;;;;;3.70;2.30;;;;;;;38.94;14.61;95620.00;109126;1272;22546;-85
2023/04/24 08:10:38;;;;;;;3.40;2.40;;;;;;;39.30;14.75;95616.26;109101;1273;25401;-85
2023/04/24 08:13:11;;;;;;;3.40;2.20;;;;;;;39.35;14.82;95616.64;109130;1273;22609;-85
2023/04/24 08:15:42;;;;;;;3.50;3.20;;;;;;;39.43;14.95;95617.35;109080;1273;22574;-85
2023/04/24 08:18:16;;;;;;;2.60;2.30;;;;;;;38.78;14.04;95610.80;109077;1273;24620;-85
2023/04/24 08:20:46;;;;;;;4.30;2.70;;;;;;;36.75;13.52;95612.19;109109;1273;24162;-85
2023/04/24 08:23:18;;;;;;;3.10;2.30;;;;;;;34.94;14.86;95608.43;109127;1273;23864;-85
2023/04/24 08:26:19;;;;;;;4.30;2.50;;;;;;;34.87;15.36;95601.45;109112;1273;24339;-85
2023/04/24 08:28:51;;;;;;;4.20;3.00;;;;;;;35.18;16.11;95597.16;108800;1273;22551;-84
2023/04/24 08:31:22;;;;;;;4.00;2.30;;;;;;;35.62;15.88;95598.01;109070;1272;22579;-84
2023/04/24 08:33:53;;;;;;;2.50;2.30;;;;;;;36.18;16.20;95599.93;109100;1273;22537;-85
2023/04/24 08:36:24;;;;;;;2.60;2.40;;;;;;;36.35;15.49;95603.09;109107;1272;24279;-84
2023/04/24 08:38:57;;;;;;;3.70;2.50;;;;;;;35.67;15.85;95597.38;109109;1273;22573;-85
2023/04/24 08:41:29;;;;;;;2.50;2.30;;;;;;;36.44;16.32;95599.89;109131;1273;22536;-85
2023/04/24 08:44:02;;;;;;;2.70;2.20;;;;;;;36.75;15.63;95599.23;109101;1270;24209;-85
2023/04/24 08:46:34;;;;;;;2.80;2.20;;;;;;;36.33;15.60;95596.33;109079;1273;26718;-85
2023/04/24 08:49:07;;;;;;;8.10;2.70;;;;;;;35.48;15.24;95588.50;109095;1271;22800;-84
2023/04/24 08:51:40;;;;;;;4.40;2.50;;;;;;;34.65;15.86;95587.07;109141;1273;22626;-85
2023/04/24 08:54:12;;;;;;;3.50;2.60;;;;;;;34.94;16.27;95583.67;109141;1266;23574;-85
2023/04/24 08:56:48;;;;;;;3.90;2.40;;;;;;;35.37;16.37;95580.29;109107;1273;31596;-85
2023/04/24 08:59:22;;;;;;;4.40;2.20;;;;;;;35.83;16.39;95576.17;109083;1267;22530;-84
2023/04/24 09:01:55;;;;;;;3.60;2.30;;;;;;;36.47;16.20;95580.58;109177;1270;23272;-85
2023/04/24 09:04:28;;;;;;;4.20;2.40;;;;;;;36.82;16.11;95577.25;109086;1267;22608;-84
2023/04/24 09:07:00;;;;;;;3.70;2.70;;;;;;;37.15;15.78;95579.83;109074;1270;23678;-84
2023/04/24 09:09:33;;;;;;;4.40;2.60;;;;;;;36.93;15.98;95576.98;109057;1274;22513;-84
2023/04/24 09:12:05;;;;;;;3.50;2.70;;;;;;;36.95;16.23;95577.40;109116;1274;22563;-84
2023/04/24 09:14:38;;;;;;;4.70;2.70;;;;;;;36.55;16.00;95575.15;109128;1275;22518;-86
2023/04/24 09:17:10;;;;;;;4.00;2.80;;;;;;;35.74;16.18;95570.06;109109;1274;22682;-85
2023/04/24 09:19:41;;;;;;;2.80;2.40;;;;;;;34.52;16.23;95565.63;109083;1267;22530;-85
2023/04/24 09:22:13;;;;;;;4.70;2.50;;;;;;;33.09;16.82;95566.88;109148;1273;22517;-83
2023/04/24 09:24:46;;;;;;;2.80;2.50;;;;;;;31.44;17.14;95564.82;109127;1272;23749;-85
2023/04/24 09:27:18;;;;;;;3.60;3.00;;;;;;;30.23;18.68;95561.36;109093;1271;25002;-84
2023/04/24 09:29:58;;;;;;;5.40;2.80;;;;;;;29.65;19.33;95556.56;109109;1271;22579;-84
2023/04/24 09:32:29;;;;;;;4.90;2.80;;;;;;;28.93;19.73;95554.94;109117;1273;22522;-83
2023/04/24 09:35:14;;;;;;;3.40;2.70;;;;;;;28.50;20.92;95552.16;109265;1273;23239;-82
2023/04/24 09:37:48;;;;;;;4.00;3.20;;;;;;;27.98;20.64;95555.52;109261;1267;23769;-82
2023/04/24 09:40:21;;;;;;;5.80;2.90;;;;;;;27.37;21.54;95550.01;109163;1273;22531;-82
2023/04/24 09:42:57;;;;;;;5.10;2.80;;;;;;;26.89;21.25;95547.98;109210;1273;22699;-82
2023/04/24 09:45:35;;;;;;;5.60;3.50;;;;;;;26.17;21.82;95546.27;109133;1273;25281;-82
2023/04/24 09:48:12;;;;;;;3.70;3.00;;;;;;;25.60;22.87;95535.31;109106;1273;22683;-82
2023/04/24 09:50:49;;;;;;;5.50;3.00;;;;;;;24.57;22.86;95540.14;109092;1273;23098;-82
2023/04/24 09:53:24;;;;;;;;;;;;;;;23.41;23.90;95547.13;109196;1267;25494;-83
2023/04/24 09:56:03;;;;;;;4.40;3.30;;;;;;;23.29;24.51;95549.38;109248;1267;22546;-83
2023/04/24 09:58:35;;;;;;;3.20;2.40;;;;;;;23.17;24.13;95545.20;109254;1273;22539;-84
2023/04/24 10:01:07;;;;;;;5.50;2.60;;;;;;;22.53;24.07;95537.92;109117;1273;22543;-84
2023/04/24 10:03:38;;;;;;;3.90;2.90;;;;;;;22.05;24.31;95537.16;109230;1270;22535;-84
2023/04/24 10:06:12;;;;;;;3.20;2.80;;;;;;;21.95;24.63;95535.26;109311;1260;22518;-85
2023/04/24 10:08:46;;;;;;;5.20;2.80;;;;;;;22.02;25.12;95533.98;109306;1260;22621;-84
2023/04/24 10:11:17;;;;;;;5.00;3.00;;;;;;;22.34;25.14;95532.53;109265;1269;23221;-85
2023/04/24 10:13:55;;;;;;;4.70;2.90;;;;;;;22.65;25.59;95531.33;109400;1263;22602;-85
2023/04/24 10:16:28;;;;;;;3.90;3.00;;;;;;;22.88;25.19;95533.17;110448;1273;23521;-85
2023/04/24 10:19:03;;;;;;;2.90;2.60;;;;;;;22.89;25.00;95529.94;109608;1273;22586;-85
2023/04/24 10:21:35;;;;;;;5.50;3.00;;;;;;;22.83;25.66;95524.90;109303;1251;22537;-84
2023/04/24 10:24:07;;;;;;;6.20;3.60;;;;;;;22.92;27.32;95524.30;109261;1273;22552;-85
2023/04/24 10:26:39;;;;;;;5.60;3.50;;;;;;;23.15;27.12;95525.10;109126;1272;22614;-84
2023/04/24 10:29:15;;;;;;;5.00;3.40;;;;;;;23.14;27.15;95523.95;109203;1272;22515;-84
2023/04/24 10:31:46;;;;;;;4.30;3.50;;;;;;;22.94;26.97;95518.59;109109;1273;24401;-84
2023/04/24 10:34:20;;;;;;;4.50;3.30;;;;;;;22.33;27.89;95511.23;109140;1267;25427;-84
2023/04/24 10:36:53;;;;;;;6.60;3.20;;;;;;;22.11;27.70;95516.61;109079;1273;22577;-84
2023/04/24 10:39:25;;;;;;;4.80;3.30;;;;;;;21.69;28.11;95512.21;109071;1272;22522;-84
2023/04/24 10:41:57;;;;;;;4.60;2.90;;;;;;;21.56;27.11;95516.66;109043;1273;23708;-84
2023/04/24 10:44:38;;;;;;;3.80;3.30;;;;;;;21.73;27.74;95517.70;109125;1273;22580;-85
2023/04/24 10:47:15;;;;;;;4.70;3.20;;;;;;;21.80;26.84;95516.37;109102;1273;22518;-84
2023/04/24 10:49:46;;;;;;;3.60;3.00;;;;;;;21.58;26.94;95509.98;109118;1273;25304;-85
2023/04/24 10:52:17;;;;;;;4.20;2.60;;;;;;;21.58;26.92;95509.60;109096;1273;25326;-84
2023/04/24 10:54:49;;;;;;;4.30;3.00;;;;;;;21.73;27.21;95504.21;109121;1270;22519;-84
2023/04/24 10:57:32;;;;;;;4.50;2.80;;;;;;;21.72;26.44;95505.44;109082;1270;22523;-85
2023/04/24 11:00:22;;;;;;;3.60;2.90;;;;;;;21.60;27.11;95499.27;109125;1273;22612;-85
2023/04/24 11:02:55;;;;;;;5.40;3.20;;;;;;;21.11;27.52;95503.37;109113;1273;22574;-84
2023/04/24 11:05:53;;;;;;;4.50;3.30;;;;;;;20.75;27.81;95506.44;109113;1273;22671;-84
2023/04/24 11:08:30;;;;;;;4.00;2.70;;;;;;;20.57;28.12;95505.18;109062;1273;22547;-84
2023/04/24 11:11:04;;;;;;;3.70;3.20;;;;;;;20.51;28.39;95503.65;109186;1251;22531;-85
2023/04/24 11:14:15;;;;;;;4.10;3.50;;;;;;;20.49;28.42;95500.70;109204;1273;22612;-84
2023/04/24 11:16:52;;;;;;;5.30;3.10;;;;;;;20.28;29.69;95506.75;109151;1270;23360;-85
2023/04/24 11:19:28;;;;;;;5.60;3.40;;;;;;;20.15;29.28;95509.84;109151;1273;22521;-84
2023/04/24 11:22:02;;;;;;;4.10;3.60;;;;;;;20.28;29.37;95509.60;109156;1273;25403;-84
2023/04/24 11:24:39;;;;;;;5.30;3.30;;;;;;;20.39;28.84;95508.49;109100;1273;22932;-84
2023/04/24 11:27:16;;;;;;;4.40;3.20;;;;;;;20.39;29.34;95506.89;109072;1273;24968;-84
2023/04/24 11:29:49;;;;;;;5.80;3.30;;;;;;;20.34;29.55;95508.13;109119;1265;22457;-84
2023/04/24 11:32:27;;;;;;;4.00;3.30;;;;;;;20.47;29.40;95508.08;109112;1270;22515;-84
2023/04/24 11:35:00;;;;;;;7.00;3.80;;;;;;;20.46;29.25;95505.30;109069;1273;24263;-85
2023/04/24 11:37:36;;;;;;;5.10;3.50;;;;;;;20.51;29.79;95505.87;109116;1273;22623;-84
2023/04/24 11:40:09;;;;;;;5.50;3.80;;;;;;;20.37;29.52;95508.71;109112;1273;22554;-85
2023/04/24 11:42:42;;;;;;;4.80;3.60;;;;;;;20.04;29.61;95507.69;109135;1273;22532;-84
2023/04/24 11:45:15;;;;;;;5.80;3.50;;;;;;;19.89;30.58;95509.89;109093;1273;25067;-84
2023/04/24 11:47:47;;;;;;;5.80;3.60;;;;;;;19.81;30.35;95510.10;109126;1265;22864;-84
2023/04/24 11:50:23;;;;;;;7.30;3.90;;;;;;;19.56;30.09;95512.95;109066;1270;22536;-85